Time;durP1;ratioP1;P1;durP2;ratioP2;P2;SDS_P1;SDS_P2;PMS_P1;PMS_P2;Temp;Humidity;BMP_temperature;BMP_pressure;BME280_temperature;BME280_humidity;BME280_pressure;Samples;Min_cycle;Max_cycle;Signal;HPM_P1;HPM_P2
2022/10/17 00:01:49;;;;;;;5.82;2.97;;;11.40;99.90;;;;;;4987295;28;20056;-80
2022/10/17 00:04:14;;;;;;;8.70;3.33;;;11.40;99.90;;;;;;5018496;28;20045;-80
2022/10/17 00:06:40;;;;;;;10.32;3.65;;;11.50;99.90;;;;;;5008381;28;20057;-80
2022/10/17 00:09:06;;;;;;;8.23;2.90;;;11.60;99.90;;;;;;5017746;28;20060;-80
2022/10/17 00:11:32;;;;;;;8.25;3.42;;;11.60;99.90;;;;;;5026519;28;20816;-80
2022/10/17 00:13:57;;;;;;;7.47;3.03;;;11.70;99.90;;;;;;5001669;28;20050;-80
2022/10/17 00:16:33;;;;;;;7.63;3.10;;;11.80;99.90;;;;;;5035093;28;20054;-80
2022/10/17 00:18:59;;;;;;;10.98;3.30;;;11.80;99.90;;;;;;5036361;28;20053;-80
2022/10/17 00:21:25;;;;;;;7.15;3.20;;;11.90;99.90;;;;;;5003212;28;20048;-80
2022/10/17 00:23:52;;;;;;;9.05;3.17;;;11.90;99.90;;;;;;5025471;28;20199;-80
2022/10/17 00:26:18;;;;;;;7.70;3.05;;;12.00;99.90;;;;;;5018508;28;20060;-80
2022/10/17 00:28:48;;;;;;;7.97;3.50;;;12.00;99.90;;;;;;5002206;28;20058;-80
2022/10/17 00:31:15;;;;;;;6.80;3.10;;;12.00;99.90;;;;;;5034314;28;20089;-80
2022/10/17 00:33:42;;;;;;;6.32;3.22;;;12.00;99.90;;;;;;5019118;28;20061;-80
2022/10/17 00:36:12;;;;;;;6.97;3.30;;;12.10;99.90;;;;;;5002215;28;20077;-80
2022/10/17 00:38:38;;;;;;;6.80;3.67;;;12.10;99.90;;;;;;5018807;28;20514;-80
2022/10/17 00:41:06;;;;;;;9.77;3.53;;;12.10;99.90;;;;;;5001837;28;20175;-80
2022/10/17 00:43:57;;;;;;;6.10;3.53;;;12.10;99.90;;;;;;5018265;28;20143;-80
2022/10/17 00:46:26;;;;;;;9.15;3.17;;;12.20;99.90;;;;;;5034569;28;20455;-80
2022/10/17 00:48:54;;;;;;;5.75;3.20;;;12.30;99.90;;;;;;5018884;28;20479;-81
2022/10/17 00:51:26;;;;;;;10.35;3.40;;;12.30;99.90;;;;;;5009464;28;20053;-80
2022/10/17 00:53:52;;;;;;;7.15;3.15;;;12.40;99.90;;;;;;5018694;28;20507;-80
2022/10/17 00:56:20;;;;;;;8.70;3.22;;;12.40;99.90;;;;;;5002384;28;20081;-80
2022/10/17 00:58:46;;;;;;;6.82;3.65;;;12.40;99.90;;;;;;5017855;28;20554;-80
2022/10/17 01:01:12;;;;;;;6.40;3.17;;;12.50;99.90;;;;;;5001499;28;20372;-80
2022/10/17 01:03:37;;;;;;;7.68;3.15;;;12.50;99.90;;;;;;5002401;28;20049;-79
2022/10/17 01:06:03;;;;;;;10.25;3.80;;;12.60;99.90;;;;;;5018642;28;20049;-80
2022/10/17 01:08:29;;;;;;;5.65;3.22;;;12.70;99.90;;;;;;5000746;28;20049;-80
2022/10/17 01:11:07;;;;;;;9.95;3.67;;;12.70;99.90;;;;;;5001546;28;20068;-80
2022/10/17 01:13:45;;;;;;;7.28;3.67;;;12.70;99.90;;;;;;5017592;28;20386;-80
2022/10/17 01:16:33;;;;;;;6.15;3.63;;;12.70;99.90;;;;;;5025324;28;20071;-80
2022/10/17 01:19:22;;;;;;;8.35;3.10;;;12.70;99.90;;;;;;5001959;28;20089;-80
2022/10/17 01:22:22;;;;;;;10.02;3.45;;;12.70;99.90;;;;;;5017993;28;20453;-80
2022/10/17 01:25:19;;;;;;;10.65;4.00;;;12.80;99.90;;;;;;5019386;28;20677;-80
2022/10/17 01:27:59;;;;;;;7.38;4.03;;;12.80;99.90;;;;;;5008790;28;20988;-80
2022/10/17 01:30:46;;;;;;;8.82;3.90;;;12.80;99.90;;;;;;5008988;28;20056;-80
2022/10/17 01:33:22;;;;;;;6.63;3.67;;;12.80;99.90;;;;;;5008704;28;20053;-80
2022/10/17 01:35:57;;;;;;;9.63;4.20;;;12.80;99.90;;;;;;5026431;28;20193;-80
2022/10/17 01:38:29;;;;;;;6.93;3.65;;;12.80;99.90;;;;;;5025579;28;20065;-80
2022/10/17 01:41:01;;;;;;;5.25;3.42;;;12.70;99.90;;;;;;5033858;28;20403;-80
2022/10/17 01:43:52;;;;;;;7.38;3.88;;;12.70;99.90;;;;;;5010698;28;20132;-80
2022/10/17 01:46:23;;;;;;;8.43;3.83;;;12.70;99.90;;;;;;5004714;28;20053;-80
2022/10/17 01:48:48;;;;;;;8.65;3.58;;;12.70;99.90;;;;;;5021879;28;20049;-80
2022/10/17 01:51:30;;;;;;;8.25;3.92;;;12.70;99.90;;;;;;5004558;28;20045;-80
2022/10/17 01:54:08;;;;;;;8.07;3.80;;;12.60;99.90;;;;;;5012670;28;20520;-81
2022/10/17 01:56:35;;;;;;;7.72;3.90;;;12.60;99.90;;;;;;5038170;28;20053;-80
2022/10/17 01:59:08;;;;;;;10.57;4.95;;;12.60;99.90;;;;;;5012695;28;20490;-80
2022/10/17 02:01:36;;;;;;;6.57;3.55;;;12.60;99.90;;;;;;5021560;28;20142;-81
2022/10/17 02:04:04;;;;;;;10.43;4.20;;;12.60;99.90;;;;;;5022259;28;20049;-80
2022/10/17 02:06:34;;;;;;;6.10;3.67;;;12.60;99.90;;;;;;5011918;28;20116;-80
2022/10/17 02:09:01;;;;;;;7.32;4.55;;;12.60;99.90;;;;;;5027523;28;20053;-81
2022/10/17 02:11:27;;;;;;;10.98;4.40;;;12.50;99.90;;;;;;5005254;28;20394;-81
2022/10/17 02:14:14;;;;;;;9.57;4.90;;;12.60;99.90;;;;;;5005548;28;20517;-80
2022/10/17 02:16:39;;;;;;;9.55;4.57;;;12.50;99.90;;;;;;5038744;28;20076;-80
2022/10/17 02:19:25;;;;;;;10.00;5.05;;;12.50;99.90;;;;;;5021144;28;20077;-80
2022/10/17 02:22:03;;;;;;;7.78;5.10;;;12.50;99.90;;;;;;5038159;28;20112;-80
2022/10/17 02:24:43;;;;;;;7.03;5.15;;;12.50;99.90;;;;;;5020928;28;20045;-81
2022/10/17 02:27:32;;;;;;;10.88;5.30;;;12.50;99.90;;;;;;5012544;28;20050;-80
2022/10/17 02:30:22;;;;;;;7.30;5.20;;;12.40;99.90;;;;;;5007800;28;20053;-81
2022/10/17 02:32:59;;;;;;;8.85;5.57;;;12.50;99.90;;;;;;5020089;28;20450;-80
2022/10/17 02:35:30;;;;;;;8.80;5.40;;;12.40;99.90;;;;;;5020684;28;20474;-81
2022/10/17 02:37:58;;;;;;;10.15;4.90;;;12.40;99.90;;;;;;5019988;28;20038;-81
2022/10/17 02:40:26;;;;;;;10.48;5.95;;;12.40;99.90;;;;;;5026977;28;20058;-80
2022/10/17 02:42:54;;;;;;;7.88;6.50;;;12.40;99.90;;;;;;5011886;28;20451;-80
2022/10/17 02:45:22;;;;;;;11.43;6.57;;;12.40;99.90;;;;;;5003247;28;20399;-79
2022/10/17 02:48:06;;;;;;;10.27;6.78;;;12.40;99.90;;;;;;5021237;28;20116;-81
2022/10/17 02:50:58;;;;;;;8.93;6.35;;;12.50;99.90;;;;;;5020413;28;20184;-80
2022/10/17 02:53:33;;;;;;;11.98;6.60;;;12.50;99.90;;;;;;5037354;28;20085;-81
2022/10/17 02:56:05;;;;;;;7.90;6.30;;;12.50;99.90;;;;;;5019720;28;20495;-80
2022/10/17 02:58:34;;;;;;;8.25;6.25;;;12.50;99.90;;;;;;5004710;28;20061;-80
2022/10/17 03:01:00;;;;;;;9.48;6.40;;;12.40;99.90;;;;;;5027537;28;20499;-80
2022/10/17 03:03:28;;;;;;;9.52;6.90;;;12.50;99.90;;;;;;5020098;28;20095;-80
2022/10/17 03:05:54;;;;;;;9.20;7.00;;;12.50;99.90;;;;;;5020743;28;20195;-80
2022/10/17 03:08:20;;;;;;;10.07;7.50;;;12.50;99.90;;;;;;5004277;28;20246;-80
2022/10/17 03:10:46;;;;;;;10.35;7.65;;;12.50;99.90;;;;;;5019920;28;20052;-80
2022/10/17 03:13:12;;;;;;;14.05;8.98;;;12.50;99.90;;;;;;5019073;28;20046;-81
2022/10/17 03:15:38;;;;;;;11.57;9.32;;;12.50;99.90;;;;;;5027710;28;20874;-80
2022/10/17 03:18:03;;;;;;;14.95;10.68;;;12.50;99.90;;;;;;5003966;28;20145;-80
2022/10/17 03:20:29;;;;;;;13.38;10.45;;;12.50;99.90;;;;;;5003561;28;20046;-80
2022/10/17 03:22:55;;;;;;;13.88;10.13;;;12.50;99.90;;;;;;5003026;28;20057;-81
2022/10/17 03:25:21;;;;;;;13.23;10.57;;;12.50;99.90;;;;;;5003843;28;20041;-80
2022/10/17 03:27:47;;;;;;;17.38;11.75;;;12.40;99.90;;;;;;5004051;28;20052;-80
2022/10/17 03:30:12;;;;;;;16.98;11.20;;;12.40;99.90;;;;;;4986991;28;20045;-80
2022/10/17 03:32:38;;;;;;;16.75;11.82;;;12.40;99.90;;;;;;5019244;28;20061;-81
2022/10/17 03:35:04;;;;;;;16.30;12.00;;;12.50;99.90;;;;;;5003360;28;20054;-80
2022/10/17 03:37:30;;;;;;;15.70;11.38;;;12.50;99.90;;;;;;4986821;28;20496;-80
2022/10/17 03:39:55;;;;;;;14.90;11.73;;;12.40;99.90;;;;;;5004154;28;20056;-80
2022/10/17 03:42:22;;;;;;;13.75;11.55;;;12.50;99.90;;;;;;5027557;28;20376;-80
2022/10/17 03:44:47;;;;;;;15.43;12.07;;;12.50;99.90;;;;;;5010340;28;20053;-80
2022/10/17 03:47:13;;;;;;;17.45;12.13;;;12.60;99.90;;;;;;4987365;28;20057;-80
2022/10/17 03:49:39;;;;;;;16.83;12.50;;;12.60;99.90;;;;;;4985804;28;20053;-80
2022/10/17 03:52:05;;;;;;;14.18;10.35;;;12.60;99.90;;;;;;5010606;28;20406;-80
2022/10/17 03:54:30;;;;;;;14.20;11.48;;;12.60;99.90;;;;;;4986850;28;20049;-80
2022/10/17 03:56:56;;;;;;;13.00;11.02;;;12.60;99.90;;;;;;5002060;28;20045;-81
2022/10/17 03:59:22;;;;;;;12.88;10.55;;;12.70;99.90;;;;;;5002908;28;20045;-80
2022/10/17 04:01:47;;;;;;;15.88;11.45;;;12.70;99.90;;;;;;5026447;28;20045;-80
2022/10/17 04:04:13;;;;;;;16.92;11.77;;;12.70;99.90;;;;;;5003220;28;20053;-80
2022/10/17 04:06:39;;;;;;;14.02;10.85;;;12.70;99.90;;;;;;5002235;28;20140;-80
2022/10/17 04:09:05;;;;;;;14.27;11.65;;;12.70;99.90;;;;;;5002499;28;20041;-80
2022/10/17 04:11:31;;;;;;;13.82;10.80;;;12.70;99.90;;;;;;4986820;28;20058;-80
2022/10/17 04:13:58;;;;;;;13.75;11.55;;;12.70;99.90;;;;;;5003903;28;20049;-80
2022/10/17 04:16:24;;;;;;;16.02;10.75;;;12.70;99.90;;;;;;4987255;28;20392;-80
2022/10/17 04:18:58;;;;;;;13.98;11.35;;;12.70;99.90;;;;;;5002396;28;20044;-80
2022/10/17 04:21:27;;;;;;;16.90;12.00;;;12.70;99.90;;;;;;5019722;28;20057;-80
2022/10/17 04:23:58;;;;;;;14.73;12.02;;;12.70;99.90;;;;;;5025606;28;20120;-80
2022/10/17 04:26:24;;;;;;;14.43;12.18;;;12.80;99.90;;;;;;5019152;28;20085;-80
2022/10/17 04:28:50;;;;;;;15.18;11.68;;;12.80;99.90;;;;;;5001425;28;20135;-80
2022/10/17 04:31:17;;;;;;;17.05;12.40;;;12.80;99.90;;;;;;5019933;28;20977;-80
2022/10/17 04:33:46;;;;;;;18.23;12.77;;;12.90;99.90;;;;;;5018059;28;20146;-80
2022/10/17 04:36:14;;;;;;;16.58;13.05;;;12.90;99.90;;;;;;5025852;28;20049;-80
2022/10/17 04:38:40;;;;;;;16.67;13.30;;;13.00;99.90;;;;;;5006275;28;20510;-80
2022/10/17 04:41:09;;;;;;;15.70;12.80;;;13.10;99.90;;;;;;5002050;28;20061;-80
2022/10/17 04:43:37;;;;;;;19.42;13.57;;;13.10;99.90;;;;;;5001608;28;21012;-80
2022/10/17 04:46:08;;;;;;;17.63;13.27;;;13.10;99.90;;;;;;4993270;28;20042;-80
2022/10/17 04:48:34;;;;;;;19.73;14.07;;;13.20;99.90;;;;;;5026053;28;20060;-80
2022/10/17 04:51:04;;;;;;;16.42;13.77;;;13.20;99.90;;;;;;5001677;28;20053;-80
2022/10/17 04:53:31;;;;;;;17.13;13.90;;;13.30;99.90;;;;;;5025502;28;20050;-80
2022/10/17 04:55:57;;;;;;;16.67;13.63;;;13.30;99.90;;;;;;5035050;28;20059;-80
2022/10/17 04:58:22;;;;;;;15.73;12.88;;;13.30;99.90;;;;;;5009375;28;20395;-79
2022/10/17 05:00:49;;;;;;;17.15;13.65;;;13.40;99.90;;;;;;4986102;28;20046;-79
2022/10/17 05:03:15;;;;;;;18.23;13.18;;;13.40;99.90;;;;;;5018939;28;20630;-79
2022/10/17 05:05:41;;;;;;;18.05;13.07;;;13.40;99.90;;;;;;5018724;28;20042;-79
2022/10/17 05:08:09;;;;;;;18.00;13.05;;;13.40;99.90;;;;;;5025413;28;20061;-80
2022/10/17 05:10:40;;;;;;;16.70;13.75;;;13.00;99.90;;;;;;5025107;28;20153;-79
2022/10/17 05:13:06;;;;;;;16.80;14.35;;;13.40;99.90;;;;;;5009664;28;20191;-80
2022/10/17 05:15:32;;;;;;;16.45;12.38;;;13.50;99.90;;;;;;4986304;28;20056;-80
2022/10/17 05:17:58;;;;;;;16.65;12.70;;;13.50;99.90;;;;;;5001723;28;20495;-80
2022/10/17 05:20:24;;;;;;;17.20;13.38;;;13.50;99.90;;;;;;5017959;28;20042;-79
2022/10/17 05:22:50;;;;;;;19.52;13.18;;;13.50;99.90;;;;;;5001241;28;20778;-80
2022/10/17 05:25:15;;;;;;;16.23;13.23;;;13.50;99.90;;;;;;4986084;28;20124;-80
2022/10/17 05:27:41;;;;;;;17.38;12.95;;;13.50;99.90;;;;;;5001863;28;20073;-80
2022/10/17 05:30:08;;;;;;;15.30;11.52;;;13.50;99.90;;;;;;5017484;28;20068;-78
2022/10/17 05:32:33;;;;;;;24.30;12.15;;;13.50;99.90;;;;;;5017263;28;20475;-79
2022/10/17 05:34:59;;;;;;;14.95;11.35;;;13.50;99.90;;;;;;5000176;28;20120;-80
2022/10/17 05:37:25;;;;;;;15.32;11.70;;;13.50;99.90;;;;;;4986158;28;20140;-79
2022/10/17 05:39:50;;;;;;;13.60;11.13;;;13.50;99.90;;;;;;5016158;28;20053;-79
2022/10/17 05:42:16;;;;;;;13.57;10.60;;;13.40;99.90;;;;;;5001569;28;20148;-80
2022/10/17 05:44:42;;;;;;;16.45;11.98;;;13.40;99.90;;;;;;5018017;28;20042;-79
2022/10/17 05:47:08;;;;;;;14.30;11.45;;;13.40;99.90;;;;;;5018467;28;20050;-79
2022/10/17 05:49:34;;;;;;;10.63;9.18;;;13.40;99.90;;;;;;5017599;28;20430;-79
2022/10/17 05:52:00;;;;;;;12.70;11.25;;;13.40;99.90;;;;;;4985686;28;20061;-78
2022/10/17 05:54:26;;;;;;;13.57;9.70;;;13.40;99.90;;;;;;5001017;28;20061;-80
2022/10/17 05:56:53;;;;;;;14.57;10.65;;;13.50;99.90;;;;;;5020317;28;20552;-80
2022/10/17 05:59:19;;;;;;;15.55;10.43;;;13.50;99.90;;;;;;5002435;28;20061;-80
2022/10/17 06:01:45;;;;;;;15.88;10.88;;;13.60;99.90;;;;;;5000177;28;20119;-80
2022/10/17 06:04:10;;;;;;;17.05;10.63;;;13.70;99.90;;;;;;5016302;28;20041;-80
2022/10/17 06:06:37;;;;;;;15.77;11.43;;;13.80;99.90;;;;;;5000754;28;20549;-80
2022/10/17 06:09:03;;;;;;;15.48;10.98;;;13.90;99.90;;;;;;5017211;28;20049;-80
2022/10/17 06:11:29;;;;;;;13.57;10.77;;;14.00;99.90;;;;;;5002360;28;20052;-78
2022/10/17 06:13:55;;;;;;;14.50;10.75;;;14.00;99.90;;;;;;5001128;28;20053;-81
2022/10/17 06:16:21;;;;;;;13.52;10.18;;;14.10;99.90;;;;;;5018561;28;20475;-81
2022/10/17 06:18:47;;;;;;;13.60;9.80;;;14.20;99.90;;;;;;5024263;28;20096;-81
2022/10/17 06:21:16;;;;;;;15.07;10.45;;;14.20;99.90;;;;;;5017288;28;20054;-80
2022/10/17 06:23:42;;;;;;;14.93;10.73;;;14.20;99.90;;;;;;5000070;28;20049;-81
2022/10/17 06:26:08;;;;;;;12.65;10.25;;;14.30;99.90;;;;;;4999749;28;20045;-82
2022/10/17 06:28:34;;;;;;;18.80;10.15;;;14.30;99.90;;;;;;5016188;28;20053;-82
2022/10/17 06:31:08;;;;;;;15.40;9.77;;;14.30;99.90;;;;;;5015634;28;20057;-82
2022/10/17 06:33:34;;;;;;;13.50;10.20;;;14.30;99.90;;;;;;5003490;28;20484;-81
2022/10/17 06:36:01;;;;;;;11.88;9.70;;;14.40;99.90;;;;;;4999845;28;20049;-83
2022/10/17 06:38:27;;;;;;;10.80;9.48;;;14.40;99.90;;;;;;5008002;28;20052;-81
2022/10/17 06:40:53;;;;;;;16.67;10.13;;;14.40;99.90;;;;;;4996780;28;20045;-82
2022/10/17 06:43:19;;;;;;;13.18;9.98;;;14.40;99.90;;;;;;5014642;28;20050;-81
2022/10/17 06:45:49;;;;;;;13.77;9.90;;;14.50;99.90;;;;;;5033804;28;20045;-81
2022/10/17 06:48:15;;;;;;;13.40;10.50;;;14.50;99.90;;;;;;5016335;28;20041;-81
2022/10/17 06:50:41;;;;;;;11.57;9.85;;;14.50;99.90;;;;;;5016120;28;20144;-82
2022/10/17 06:53:06;;;;;;;12.75;9.27;;;14.50;99.90;;;;;;5015416;28;20137;-82
2022/10/17 06:55:32;;;;;;;12.23;9.88;;;14.50;99.90;;;;;;4990021;28;20111;-81
2022/10/17 06:57:58;;;;;;;11.27;8.90;;;14.60;99.90;;;;;;5016864;28;20053;-81
2022/10/17 07:00:25;;;;;;;12.38;8.85;;;14.50;99.90;;;;;;5018548;28;20046;-81
2022/10/17 07:02:51;;;;;;;11.13;9.65;;;14.60;99.90;;;;;;5003234;28;20049;-81
2022/10/17 07:05:18;;;;;;;11.55;9.52;;;14.60;99.90;;;;;;5020043;28;20045;-81
2022/10/17 07:07:44;;;;;;;14.10;10.07;;;14.70;99.90;;;;;;5019925;28;20061;-81
2022/10/17 07:10:13;;;;;;;11.63;8.88;;;14.70;99.90;;;;;;5044068;28;20050;-81
2022/10/17 07:12:39;;;;;;;15.32;10.00;;;14.70;99.90;;;;;;5011404;28;20092;-82
2022/10/17 07:15:05;;;;;;;11.52;9.30;;;14.70;99.90;;;;;;5004392;28;20077;-81
2022/10/17 07:17:30;;;;;;;11.52;9.18;;;14.80;99.90;;;;;;5003766;28;20050;-81
2022/10/17 07:19:56;;;;;;;13.85;8.98;;;14.80;99.90;;;;;;4987949;28;20049;-81
2022/10/17 07:22:22;;;;;;;10.77;8.63;;;14.80;99.90;;;;;;5003887;28;20069;-81
2022/10/17 07:24:47;;;;;;;11.63;9.32;;;14.90;99.90;;;;;;5003947;28;20048;-81
2022/10/17 07:27:13;;;;;;;10.95;9.27;;;14.90;99.90;;;;;;5002885;28;20455;-81
2022/10/17 07:29:40;;;;;;;12.55;9.00;;;15.00;99.90;;;;;;5002404;28;20487;-80
2022/10/17 07:32:07;;;;;;;10.70;9.10;;;15.00;99.90;;;;;;5019897;28;20104;-81
2022/10/17 07:34:34;;;;;;;10.68;8.75;;;15.00;99.90;;;;;;4986442;28;20053;-81
2022/10/17 07:37:02;;;;;;;15.35;8.77;;;15.10;99.90;;;;;;5018240;28;20049;-82
2022/10/17 07:39:28;;;;;;;10.30;8.63;;;15.10;99.90;;;;;;5004186;28;20407;-81
2022/10/17 07:41:54;;;;;;;10.82;8.30;;;15.10;99.90;;;;;;5019475;28;20120;-81
2022/10/17 07:44:20;;;;;;;10.27;9.23;;;15.10;99.90;;;;;;5020749;28;20124;-82
2022/10/17 07:46:46;;;;;;;11.63;8.80;;;15.20;99.90;;;;;;5004688;28;20053;-82
2022/10/17 07:49:11;;;;;;;12.45;9.38;;;15.20;99.90;;;;;;4986344;28;20045;-81
2022/10/17 07:51:37;;;;;;;10.00;8.40;;;15.20;99.90;;;;;;4989792;28;20124;-81
2022/10/17 07:54:04;;;;;;;12.63;8.55;;;15.30;99.90;;;;;;5015645;28;20287;-85
2022/10/17 07:56:30;;;;;;;9.70;8.32;;;15.30;99.90;;;;;;4999861;28;20046;-87
2022/10/17 07:58:56;;;;;;;13.85;9.02;;;15.30;99.90;;;;;;4998200;28;20053;-81
2022/10/17 08:01:24;;;;;;;9.77;8.50;;;15.30;99.90;;;;;;5001071;28;20054;-81
2022/10/17 08:03:50;;;;;;;11.02;8.57;;;15.40;99.90;;;;;;5023993;28;20049;-81
2022/10/17 08:06:16;;;;;;;10.27;8.52;;;15.40;99.90;;;;;;5016719;28;20048;-81
2022/10/17 08:08:42;;;;;;;9.05;7.88;;;15.40;99.90;;;;;;5014286;28;20133;-81
2022/10/17 08:11:11;;;;;;;11.68;7.95;;;15.40;99.90;;;;;;5014962;28;20568;-81
2022/10/17 08:13:37;;;;;;;8.75;7.30;;;15.40;99.90;;;;;;4998413;28;20041;-81
2022/10/17 08:16:08;;;;;;;10.85;7.78;;;15.40;99.90;;;;;;5017063;28;20793;-81
2022/10/17 08:18:35;;;;;;;8.82;7.72;;;15.40;99.90;;;;;;5016428;28;20064;-81
2022/10/17 08:21:07;;;;;;;11.90;8.45;;;15.50;99.90;;;;;;5001284;28;20080;-81
2022/10/17 08:23:33;;;;;;;9.65;7.82;;;15.50;99.90;;;;;;5017560;28;20050;-81
2022/10/17 08:25:59;;;;;;;9.40;7.45;;;15.50;99.90;;;;;;5014227;28;20044;-81
2022/10/17 08:28:25;;;;;;;10.77;8.07;;;15.50;99.90;;;;;;5017036;28;20057;-82
2022/10/17 08:30:51;;;;;;;12.13;7.38;;;15.50;99.90;;;;;;5002952;28;20049;-87
2022/10/17 08:33:20;;;;;;;11.45;8.40;;;15.50;99.90;;;;;;5001077;28;20104;-81
2022/10/17 08:35:46;;;;;;;10.48;7.63;;;15.50;99.90;;;;;;5024973;28;20081;-83
2022/10/17 08:38:12;;;;;;;13.13;8.13;;;15.50;99.90;;;;;;5000917;28;20056;-83
2022/10/17 08:40:41;;;;;;;9.23;7.70;;;15.60;99.90;;;;;;4984418;28;20076;-81
2022/10/17 08:43:27;;;;;;;12.40;7.90;;;15.60;99.90;;;;;;5018790;28;20586;-85
2022/10/17 08:46:01;;;;;;;12.20;8.02;;;15.60;99.90;;;;;;5001786;28;20415;-87
2022/10/17 08:48:31;;;;;;;10.65;7.95;;;15.60;99.90;;;;;;5000496;28;20410;-87
2022/10/17 08:51:04;;;;;;;11.68;7.50;;;15.60;99.90;;;;;;5025360;28;20551;-88
2022/10/17 08:53:40;;;;;;;9.73;7.25;;;15.60;99.90;;;;;;5016634;28;20050;-86
2022/10/17 08:56:20;;;;;;;12.90;8.10;;;15.60;99.90;;;;;;4999529;28;20133;-87
2022/10/17 08:58:46;;;;;;;10.32;8.07;;;15.60;99.90;;;;;;5025324;28;20046;-86
2022/10/17 09:01:39;;;;;;;9.95;7.80;;;15.60;99.90;;;;;;5001878;28;20049;-86
2022/10/17 09:04:36;;;;;;;9.90;8.13;;;15.60;99.90;;;;;;5019031;28;20069;-86
2022/10/17 09:07:12;;;;;;;10.88;7.88;;;15.60;99.90;;;;;;4997370;28;20124;-81
2022/10/17 09:10:02;;;;;;;10.52;8.07;;;15.60;99.90;;;;;;5015001;28;20061;-81
2022/10/17 09:13:04;;;;;;;11.15;8.18;;;15.40;99.90;;;;;;5001029;28;20037;-81
2022/10/17 09:15:54;;;;;;;8.65;7.65;;;15.60;99.90;;;;;;5005261;28;20049;-81
2022/10/17 09:18:28;;;;;;;9.88;7.97;;;15.50;99.90;;;;;;4999671;28;20049;-81
2022/10/17 09:20:59;;;;;;;10.23;7.82;;;15.60;99.90;;;;;;5014779;28;20053;-83
2022/10/17 09:23:30;;;;;;;11.88;8.05;;;15.60;99.90;;;;;;4997726;28;20403;-83
2022/10/17 09:26:00;;;;;;;10.25;8.30;;;15.90;99.90;;;;;;5015079;28;20054;-87
2022/10/17 09:28:35;;;;;;;11.88;8.07;;;15.60;99.90;;;;;;5008868;28;20104;-86
2022/10/17 09:31:10;;;;;;;;;;;15.60;99.90;;;;;;5004483;28;20038;-83
2022/10/17 09:34:09;;;;;;;12.82;8.48;;;15.60;99.90;;;;;;5003882;28;19975;-83
2022/10/17 09:36:38;;;;;;;9.30;7.70;;;15.70;99.90;;;;;;5007043;28;20486;-84
2022/10/17 09:39:04;;;;;;;12.02;8.98;;;15.70;99.90;;;;;;5015958;28;20045;-82
2022/10/17 09:41:41;;;;;;;12.02;9.00;;;15.70;99.90;;;;;;5017202;28;20059;-83
2022/10/17 09:44:21;;;;;;;10.23;8.63;;;15.70;99.90;;;;;;5002690;28;20048;-84
2022/10/17 09:46:56;;;;;;;13.65;8.48;;;15.70;99.90;;;;;;5003962;28;20045;-83
2022/10/17 09:49:36;;;;;;;13.57;9.35;;;15.70;99.90;;;;;;4997709;28;20050;-82
2022/10/17 09:52:05;;;;;;;12.35;9.18;;;15.70;99.90;;;;;;5031039;28;20069;-82
2022/10/17 09:54:50;;;;;;;13.32;8.90;;;15.80;99.90;;;;;;5002621;28;20045;-82
2022/10/17 09:57:17;;;;;;;14.30;8.38;;;15.70;99.90;;;;;;5013294;28;20045;-82
2022/10/17 09:59:55;;;;;;;12.30;8.50;;;15.80;99.90;;;;;;5004457;28;20441;-82
2022/10/17 10:02:23;;;;;;;11.00;8.45;;;15.80;99.90;;;;;;5015155;28;20391;-83
2022/10/17 10:05:13;;;;;;;11.98;8.65;;;15.80;99.90;;;;;;5005753;28;20041;-82
2022/10/17 10:07:38;;;;;;;12.57;7.80;;;15.80;99.90;;;;;;5014622;28;20084;-82
2022/10/17 10:10:24;;;;;;;17.00;9.10;;;15.90;99.90;;;;;;5016626;28;20104;-85
2022/10/17 10:13:26;;;;;;;11.98;8.10;;;15.90;99.90;;;;;;5002359;28;20042;-82
2022/10/17 10:15:51;;;;;;;11.60;8.13;;;15.90;99.90;;;;;;4987131;28;20041;-82
2022/10/17 10:18:23;;;;;;;9.65;8.27;;;15.90;99.90;;;;;;5010613;28;20049;-84
2022/10/17 10:21:02;;;;;;;11.02;8.32;;;15.90;99.90;;;;;;5022248;28;20523;-84
2022/10/17 10:23:30;;;;;;;10.82;8.23;;;16.00;99.90;;;;;;5006796;28;20050;-84
2022/10/17 10:26:02;;;;;;;12.40;8.68;;;15.90;99.90;;;;;;5017773;28;20519;-84
2022/10/17 10:28:31;;;;;;;13.68;8.73;;;16.00;99.90;;;;;;5020899;28;20419;-84
2022/10/17 10:31:01;;;;;;;10.38;8.20;;;16.00;99.90;;;;;;4996722;28;20080;-83
2022/10/17 10:33:29;;;;;;;11.10;8.25;;;16.10;99.90;;;;;;5023398;28;20049;-84
2022/10/17 10:36:02;;;;;;;12.40;8.35;;;16.10;99.90;;;;;;5017904;28;20050;-83
2022/10/17 10:38:29;;;;;;;11.85;8.43;;;16.10;99.90;;;;;;5024481;28;20038;-82
2022/10/17 10:41:01;;;;;;;10.82;8.75;;;16.10;99.90;;;;;;5001951;28;20124;-82
2022/10/17 10:43:45;;;;;;;12.68;8.68;;;16.20;99.90;;;;;;5023428;28;20056;-83
2022/10/17 10:46:23;;;;;;;11.10;8.98;;;16.20;99.90;;;;;;5020349;28;20700;-84
2022/10/17 10:48:57;;;;;;;13.15;8.65;;;16.20;99.90;;;;;;5015972;28;20042;-83
2022/10/17 10:51:31;;;;;;;11.57;8.88;;;16.30;99.90;;;;;;5006137;28;20042;-83
2022/10/17 10:54:41;;;;;;;13.40;8.77;;;16.40;99.90;;;;;;5001530;28;20042;-84
2022/10/17 10:57:18;;;;;;;14.65;8.57;;;16.50;99.90;;;;;;5007267;28;20060;-84
2022/10/17 11:00:11;;;;;;;11.48;8.27;;;16.60;99.90;;;;;;5016988;28;20072;-83
2022/10/17 11:03:16;;;;;;;9.55;7.50;;;16.70;99.90;;;;;;5017359;28;20052;-83
2022/10/17 11:06:01;;;;;;;10.27;7.55;;;16.70;99.90;;;;;;5000978;28;20111;-83
2022/10/17 11:08:32;;;;;;;10.43;7.53;;;16.70;99.90;;;;;;5016047;28;20049;-84
2022/10/17 11:11:22;;;;;;;8.55;7.03;;;16.70;99.90;;;;;;5016080;28;20483;-85
2022/10/17 11:14:20;;;;;;;7.85;6.80;;;16.70;99.90;;;;;;5016219;28;20363;-86
2022/10/17 11:16:45;;;;;;;8.63;6.68;;;16.70;99.90;;;;;;5012462;28;20057;-83
2022/10/17 11:19:42;;;;;;;10.68;6.45;;;16.70;99.90;;;;;;5008223;28;20095;-84
2022/10/17 11:22:25;;;;;;;11.75;6.85;;;16.70;99.90;;;;;;4996899;28;20061;-82
2022/10/17 11:24:59;;;;;;;8.50;6.10;;;16.70;99.90;;;;;;5013497;28;20060;-83
2022/10/17 11:27:28;;;;;;;9.85;6.22;;;16.60;99.90;;;;;;5035773;28;20045;-83
2022/10/17 11:29:54;;;;;;;8.55;6.30;;;16.60;99.90;;;;;;5003634;28;20062;-84
2022/10/17 11:32:33;;;;;;;13.27;6.55;;;16.50;99.90;;;;;;5010233;28;20111;-83
2022/10/17 11:35:13;;;;;;;10.93;6.80;;;16.50;99.90;;;;;;5019682;28;20076;-82
2022/10/17 11:37:45;;;;;;;9.73;6.00;;;16.50;99.90;;;;;;5001912;28;20218;-84
2022/10/17 11:40:37;;;;;;;9.10;5.68;;;16.40;99.90;;;;;;5013758;28;20122;-83
2022/10/17 11:43:09;;;;;;;8.10;5.20;;;16.40;99.90;;;;;;5019533;28;20096;-83
2022/10/17 11:45:41;;;;;;;8.07;5.35;;;16.40;99.90;;;;;;5013330;28;20052;-83
2022/10/17 11:48:16;;;;;;;7.38;5.45;;;16.30;99.90;;;;;;5014327;28;20054;-85
2022/10/17 11:50:50;;;;;;;7.90;5.30;;;16.30;99.90;;;;;;5018663;28;20056;-85
2022/10/17 11:53:23;;;;;;;7.97;4.95;;;16.30;99.90;;;;;;4994414;28;20071;-85
2022/10/17 11:55:51;;;;;;;6.82;4.82;;;16.20;99.90;;;;;;4998591;28;20049;-85
2022/10/17 11:58:49;;;;;;;6.97;5.10;;;16.20;99.90;;;;;;5002836;28;20117;-85
2022/10/17 12:01:22;;;;;;;10.52;5.30;;;16.20;99.90;;;;;;4998121;28;20096;-81
2022/10/17 12:04:19;;;;;;;8.93;5.40;;;16.20;99.90;;;;;;4995785;28;20060;-81
2022/10/17 12:07:17;;;;;;;6.65;4.85;;;16.20;99.90;;;;;;5011467;28;20052;-81
2022/10/17 12:10:01;;;;;;;8.23;4.88;;;16.20;99.90;;;;;;4995204;28;20467;-81
2022/10/17 12:12:29;;;;;;;9.50;5.10;;;16.20;99.90;;;;;;5029607;28;20045;-82
2022/10/17 12:15:10;;;;;;;11.25;4.35;;;16.20;99.90;;;;;;5013805;28;20507;-82
2022/10/17 12:17:39;;;;;;;10.43;5.03;;;16.30;99.90;;;;;;4994074;28;20104;-82
2022/10/17 12:20:23;;;;;;;9.73;4.55;;;16.30;99.90;;;;;;4995264;28;20505;-82
2022/10/17 12:22:59;;;;;;;8.77;4.30;;;16.30;99.90;;;;;;5004808;28;20852;-82
2022/10/17 12:25:37;;;;;;;12.63;4.32;;;16.40;99.90;;;;;;4998593;28;20041;-82
2022/10/17 12:28:09;;;;;;;11.38;4.00;;;16.40;99.90;;;;;;5021932;28;20609;-82
2022/10/17 12:30:35;;;;;;;8.77;4.18;;;16.50;99.90;;;;;;5015687;28;20124;-82
2022/10/17 12:33:22;;;;;;;8.70;3.92;;;16.50;99.90;;;;;;5011396;28;20491;-82
2022/10/17 12:35:50;;;;;;;7.38;3.80;;;16.50;99.90;;;;;;4996276;28;20129;-82
2022/10/17 12:38:15;;;;;;;7.55;3.50;;;16.50;99.90;;;;;;5000990;28;20049;-83
2022/10/17 12:40:41;;;;;;;9.25;3.33;;;16.60;99.90;;;;;;5012186;28;20069;-83
2022/10/17 12:43:13;;;;;;;8.43;3.17;;;16.50;99.90;;;;;;5001958;28;20045;-83
2022/10/17 12:45:47;;;;;;;8.27;2.65;;;16.60;99.90;;;;;;5015374;28;20507;-82
2022/10/17 12:48:35;;;;;;;7.10;3.17;;;16.60;99.90;;;;;;4999414;28;20057;-83
2022/10/17 12:51:08;;;;;;;8.02;3.15;;;16.60;99.90;;;;;;5004010;28;20368;-82
2022/10/17 12:53:45;;;;;;;6.25;2.78;;;16.60;99.90;;;;;;5021713;28;20060;-83
2022/10/17 12:56:40;;;;;;;6.28;2.95;;;16.60;99.90;;;;;;4995333;28;20073;-83
2022/10/17 12:59:28;;;;;;;7.88;2.90;;;16.60;99.90;;;;;;5004872;28;20049;-83
2022/10/17 13:01:58;;;;;;;5.75;2.47;;;16.60;99.90;;;;;;5015196;28;20081;-83